createdAt,value
2022-12-17T00:07:06.197Z,31.60
2022-12-17T00:17:25.989Z,27.52
2022-12-17T00:27:45.661Z,24.03
2022-12-17T00:38:05.425Z,27.57
2022-12-17T00:48:25.095Z,29.70
2022-12-17T00:58:44.771Z,20.13
2022-12-17T01:09:05.009Z,26.10
2022-12-17T01:19:24.851Z,22.85
2022-12-17T01:29:44.572Z,27.27
2022-12-17T01:40:04.488Z,25.27
2022-12-17T01:50:35.474Z,22.77
2022-12-17T02:00:55.604Z,19.48
2022-12-17T02:11:50.099Z,21.93
2022-12-17T02:22:17.064Z,18.23
2022-12-17T02:32:38.412Z,20.15
2022-12-17T02:43:00.115Z,23.97
2022-12-17T02:53:21.757Z,20.03
2022-12-17T03:03:43.879Z,15.50
2022-12-17T03:14:07.535Z,15.48
2022-12-17T03:24:47.240Z,17.87
2022-12-17T03:35:07.251Z,17.33
2022-12-17T03:45:27.464Z,14.93
2022-12-17T03:55:47.164Z,15.27
2022-12-17T04:06:07.083Z,16.87
2022-12-17T04:16:27.735Z,16.02
2022-12-17T04:26:47.502Z,13.47
2022-12-17T04:37:07.414Z,14.77
2022-12-17T04:47:27.053Z,16.80
2022-12-17T04:57:46.949Z,16.15
2022-12-17T05:08:06.959Z,15.83
2022-12-17T05:18:27.378Z,15.93
2022-12-17T05:28:47.045Z,18.42
2022-12-17T05:39:07.758Z,19.27
2022-12-17T05:49:27.531Z,13.13
2022-12-17T05:59:47.235Z,14.27
2022-12-17T06:10:07.069Z,12.93
2022-12-17T06:20:27.951Z,17.17
2022-12-17T06:30:47.674Z,16.60
2022-12-17T06:41:08.200Z,14.48
2022-12-17T06:51:27.947Z,16.20
2022-12-17T07:01:47.762Z,14.37
2022-12-17T07:12:07.984Z,15.63
2022-12-17T07:22:28.318Z,23.17
2022-12-17T07:32:48.054Z,15.97
2022-12-17T07:43:07.796Z,18.10
2022-12-17T07:53:27.590Z,17.40
2022-12-17T08:03:47.329Z,15.63
2022-12-17T08:14:07.028Z,15.43
2022-12-17T08:24:26.939Z,14.35
2022-12-17T08:34:46.768Z,15.30
2022-12-17T08:45:06.507Z,11.73
2022-12-17T08:55:26.939Z,9.65
2022-12-17T09:05:46.746Z,17.53
2022-12-17T09:16:11.131Z,13.43
2022-12-17T09:26:30.944Z,12.98
2022-12-17T09:36:51.380Z,8.07
2022-12-17T09:47:42.379Z,6.00
2022-12-17T09:58:02.548Z,12.90
2022-12-17T10:08:25.193Z,11.63
2022-12-17T10:18:45.973Z,11.83
2022-12-17T10:29:05.737Z,11.53
2022-12-17T10:39:32.092Z,13.25
2022-12-17T10:49:51.828Z,11.20
2022-12-17T11:00:13.145Z,13.33
2022-12-17T11:10:40.595Z,13.18
2022-12-17T11:21:07.429Z,16.47
2022-12-17T11:31:43.955Z,15.37
2022-12-17T11:42:28.519Z,14.65
2022-12-17T11:53:12.923Z,14.32
2022-12-17T12:03:51.023Z,19.53
2022-12-17T12:14:39.931Z,11.10
2022-12-17T12:25:21.705Z,16.15
2022-12-17T12:35:44.660Z,12.53
2022-12-17T12:46:14.439Z,11.93
2022-12-17T12:56:52.438Z,11.98
2022-12-17T13:06:56.361Z,11.67
2022-12-17T13:17:04.220Z,15.73
2022-12-17T13:27:06.133Z,13.48
2022-12-17T13:37:13.942Z,15.35
2022-12-17T13:47:25.123Z,14.83
2022-12-17T13:57:26.561Z,21.33
2022-12-17T14:07:29.363Z,17.08
2022-12-17T14:17:48.618Z,13.70
2022-12-17T14:27:52.762Z,12.77
2022-12-17T14:37:55.751Z,13.27
2022-12-17T14:48:01.225Z,12.03
2022-12-17T14:58:11.847Z,13.70
2022-12-17T15:08:13.206Z,12.80
2022-12-17T15:18:14.595Z,12.48
2022-12-17T15:28:17.833Z,13.30
2022-12-17T15:38:19.174Z,12.33
2022-12-17T15:48:23.278Z,13.25
2022-12-17T15:58:24.640Z,13.63
2022-12-17T16:08:25.979Z,12.50
2022-12-17T16:18:27.412Z,12.23
2022-12-17T16:28:29.415Z,13.97
2022-12-17T16:38:30.916Z,13.33
2022-12-17T16:48:38.939Z,16.75
2022-12-17T16:58:40.790Z,14.90
2022-12-17T17:08:42.172Z,12.77
2022-12-17T17:18:43.741Z,15.73
2022-12-17T17:28:46.065Z,16.38
2022-12-17T17:38:49.928Z,13.13
2022-12-17T17:48:56.651Z,16.07
2022-12-17T17:59:00.550Z,13.07
2022-12-17T18:09:01.903Z,15.83
2022-12-17T18:19:06.250Z,15.03
2022-12-17T18:29:09.870Z,28.13
2022-12-17T18:39:16.995Z,25.38
2022-12-17T18:49:19.937Z,21.50
2022-12-17T18:59:28.699Z,23.07
2022-12-17T19:09:35.995Z,28.63
2022-12-17T19:19:37.648Z,30.47
2022-12-17T19:29:38.986Z,25.93
2022-12-17T19:39:40.330Z,24.58
2022-12-17T19:49:41.708Z,28.93
2022-12-17T19:59:43.078Z,23.33
2022-12-17T20:09:45.054Z,24.35
2022-12-17T20:19:46.456Z,25.05
2022-12-17T20:29:48.106Z,22.87
2022-12-17T20:39:49.603Z,23.60
2022-12-17T20:49:51.063Z,26.08
2022-12-17T20:59:52.495Z,26.93
2022-12-17T21:09:54.011Z,23.70
2022-12-17T21:19:56.033Z,27.52
2022-12-17T21:29:57.843Z,22.70
2022-12-17T21:40:00.043Z,28.23
2022-12-17T21:50:01.568Z,27.30
2022-12-17T22:00:04.007Z,19.95
2022-12-17T22:10:32.202Z,23.40
2022-12-17T22:20:27.120Z,27.57
2022-12-17T22:30:47.322Z,24.80
2022-12-17T22:44:36.802Z,24.50
2022-12-17T22:51:14.042Z,22.93
2022-12-17T23:01:23.363Z,22.40
2022-12-17T23:11:27.111Z,18.50
2022-12-17T23:21:28.518Z,21.80
2022-12-17T23:31:36.202Z,17.60
2022-12-17T23:41:37.594Z,19.80
2022-12-17T23:51:38.950Z,22.53
